Time;durP1;ratioP1;P1;durP2;ratioP2;P2;SDS_P1;SDS_P2;PMS_P1;PMS_P2;Temp;Humidity;BMP_temperature;BMP_pressure;BME280_temperature;BME280_humidity;BME280_pressure;Samples;Min_cycle;Max_cycle;Signal;HPM_P1;HPM_P2
2022/02/24 00:01:44;;;;;;;3.35;1.67;;;22.20;51.40;;;;;;4989394;28;20217;-56
2022/02/24 00:04:15;;;;;;;4.60;1.88;;;22.20;51.40;;;;;;4990118;28;20229;-46
2022/02/24 00:06:45;;;;;;;4.07;1.40;;;22.20;51.40;;;;;;4990437;28;20198;-56
2022/02/24 00:09:16;;;;;;;3.28;1.40;;;22.20;51.40;;;;;;4990189;28;20249;-46
2022/02/24 00:11:49;;;;;;;5.75;1.73;;;22.20;51.40;;;;;;4990342;28;20221;-50
2022/02/24 00:14:19;;;;;;;4.10;1.48;;;22.20;51.40;;;;;;4987973;28;20221;-48
2022/02/24 00:16:50;;;;;;;3.70;1.52;;;22.20;51.40;;;;;;4989418;28;20197;-50
2022/02/24 00:19:20;;;;;;;4.22;1.65;;;22.20;51.40;;;;;;4989247;28;20625;-49
2022/02/24 00:21:51;;;;;;;5.40;1.60;;;22.30;51.40;;;;;;4990342;28;20210;-46
2022/02/24 00:24:21;;;;;;;4.68;1.55;;;22.30;51.40;;;;;;4990125;28;20237;-46
2022/02/24 00:26:54;;;;;;;5.40;1.52;;;22.30;51.30;;;;;;4990002;28;20549;-47
2022/02/24 00:29:25;;;;;;;3.28;1.60;;;22.30;51.30;;;;;;4990485;28;20198;-46
2022/02/24 00:31:55;;;;;;;4.25;1.60;;;22.30;51.20;;;;;;4988677;28;20919;-50
2022/02/24 00:34:26;;;;;;;6.93;2.00;;;22.30;51.20;;;;;;4988121;28;20733;-46
2022/02/24 00:36:57;;;;;;;3.17;1.40;;;22.30;51.10;;;;;;4988722;28;20193;-52
2022/02/24 00:39:28;;;;;;;3.28;1.35;;;22.30;51.90;;;;;;4989720;28;20194;-54
2022/02/24 00:42:01;;;;;;;5.10;1.63;;;22.30;51.30;;;;;;4989463;28;20221;-58
2022/02/24 00:44:31;;;;;;;4.20;1.55;;;22.40;51.40;;;;;;4988208;28;20237;-55
2022/02/24 00:47:02;;;;;;;5.53;1.88;;;22.30;51.30;;;;;;4989338;28;20673;-54
2022/02/24 00:49:32;;;;;;;5.32;1.80;;;22.40;51.30;;;;;;4989986;28;20256;-55
2022/02/24 00:52:03;;;;;;;3.55;1.67;;;22.40;51.30;;;;;;4989184;28;20244;-52
2022/02/24 00:54:37;;;;;;;6.03;1.88;;;22.40;51.30;;;;;;4989520;28;20272;-46
2022/02/24 00:57:10;;;;;;;5.18;1.67;;;22.40;51.20;;;;;;4989007;28;20201;-53
2022/02/24 00:59:40;;;;;;;4.30;1.88;;;22.50;51.30;;;;;;4988770;28;20193;-47
2022/02/24 01:02:11;;;;;;;4.10;1.38;;;22.40;51.20;;;;;;4988638;28;20213;-48
2022/02/24 01:04:42;;;;;;;4.20;1.48;;;22.40;51.20;;;;;;4988788;28;20281;-53
2022/02/24 01:07:12;;;;;;;6.53;1.92;;;22.50;51.20;;;;;;4986817;28;20197;-55
2022/02/24 01:09:44;;;;;;;4.60;1.55;;;22.50;51.20;;;;;;4988597;28;20197;-52
2022/02/24 01:12:16;;;;;;;5.55;1.42;;;22.50;51.20;;;;;;4989306;28;20216;-52
2022/02/24 01:14:47;;;;;;;5.25;1.70;;;22.50;51.10;;;;;;5011890;23;20221;-57
2022/02/24 01:17:17;;;;;;;6.00;1.70;;;22.50;51.00;;;;;;5007966;28;20247;-58
2022/02/24 01:19:48;;;;;;;4.82;1.45;;;22.60;51.00;;;;;;5008575;28;20260;-52
2022/02/24 01:22:19;;;;;;;4.20;1.60;;;22.60;50.90;;;;;;5008514;28;20244;-58
2022/02/24 01:24:49;;;;;;;4.25;1.80;;;22.60;50.80;;;;;;5008735;28;20205;-54
2022/02/24 01:27:22;;;;;;;6.03;1.73;;;22.60;50.80;;;;;;5007808;28;20251;-51
2022/02/24 01:29:52;;;;;;;2.88;1.17;;;22.60;50.70;;;;;;5008468;28;20251;-57
2022/02/24 01:32:23;;;;;;;5.05;1.58;;;22.60;50.70;;;;;;5007664;28;20192;-58
2022/02/24 01:34:58;;;;;;;6.60;1.73;;;22.70;50.60;;;;;;5008384;28;20227;-59
2022/02/24 01:37:29;;;;;;;5.25;1.92;;;22.70;50.60;;;;;;5004643;28;20188;-57
2022/02/24 01:39:59;;;;;;;4.95;1.58;;;22.70;50.50;;;;;;5007631;28;20200;-56
2022/02/24 01:42:32;;;;;;;5.30;1.73;;;22.70;50.50;;;;;;5007949;28;20196;-56
2022/02/24 01:45:03;;;;;;;3.90;1.55;;;22.70;50.50;;;;;;5007669;28;20208;-55
2022/02/24 01:47:34;;;;;;;3.83;1.65;;;22.70;50.50;;;;;;5006563;28;20284;-54
2022/02/24 01:50:05;;;;;;;5.32;1.88;;;22.70;50.50;;;;;;5007121;28;20205;-58
2022/02/24 01:52:36;;;;;;;3.50;1.30;;;22.70;50.40;;;;;;5008751;28;20267;-57
2022/02/24 01:55:07;;;;;;;4.47;1.50;;;22.80;50.40;;;;;;5007566;28;20253;-57
2022/02/24 01:57:39;;;;;;;3.88;1.67;;;22.80;50.30;;;;;;5008109;28;20208;-56
2022/02/24 02:00:12;;;;;;;4.97;1.48;;;22.80;50.20;;;;;;5007838;28;20212;-51
2022/02/24 02:02:43;;;;;;;4.20;1.30;;;22.80;50.10;;;;;;5005893;28;20601;-51
2022/02/24 02:05:14;;;;;;;6.65;1.70;;;22.80;50.00;;;;;;5006876;28;20193;-56
2022/02/24 02:07:44;;;;;;;6.75;2.22;;;22.80;50.00;;;;;;5006617;28;20280;-52
2022/02/24 02:10:15;;;;;;;3.72;1.30;;;22.80;49.90;;;;;;5008246;28;20706;-56
2022/02/24 02:12:55;;;;;;;4.10;1.50;;;22.80;49.90;;;;;;5009324;28;20755;-57
2022/02/24 02:15:26;;;;;;;5.38;1.70;;;22.90;49.90;;;;;;5023073;23;20244;-51
2022/02/24 02:17:57;;;;;;;6.70;1.67;;;22.90;49.90;;;;;;5009494;28;20700;-46
2022/02/24 02:20:27;;;;;;;4.18;1.40;;;22.90;49.80;;;;;;5011784;28;20275;-46
2022/02/24 02:23:00;;;;;;;6.35;1.73;;;22.90;49.60;;;;;;5011508;28;20201;-56
2022/02/24 02:25:30;;;;;;;4.45;1.40;;;22.90;49.60;;;;;;5011345;28;20197;-48
2022/02/24 02:28:01;;;;;;;4.50;1.60;;;22.90;49.50;;;;;;5011115;28;20196;-46
2022/02/24 02:30:32;;;;;;;5.20;1.50;;;22.90;49.50;;;;;;5011963;28;20213;-49
2022/02/24 02:33:03;;;;;;;4.75;1.80;;;22.90;49.50;;;;;;5009713;28;20229;-57
2022/02/24 02:35:33;;;;;;;5.20;1.55;;;23.00;49.40;;;;;;5010878;28;20197;-46
2022/02/24 02:38:06;;;;;;;5.30;1.65;;;23.00;49.50;;;;;;5010088;28;20550;-50
2022/02/24 02:40:37;;;;;;;4.07;1.55;;;23.00;49.50;;;;;;5010744;28;20232;-46
2022/02/24 02:43:09;;;;;;;4.30;1.40;;;23.00;49.40;;;;;;5010916;28;20567;-51
2022/02/24 02:45:40;;;;;;;2.45;1.35;;;23.00;49.40;;;;;;5010753;28;20194;-55
2022/02/24 02:48:11;;;;;;;5.53;1.83;;;23.00;49.50;;;;;;5011147;28;20239;-56
2022/02/24 02:50:42;;;;;;;4.20;1.77;;;23.00;49.40;;;;;;5010969;28;20267;-47
2022/02/24 02:53:14;;;;;;;2.78;1.40;;;23.00;49.30;;;;;;5010279;28;20196;-51
2022/02/24 02:55:45;;;;;;;3.92;1.52;;;23.10;49.20;;;;;;5010254;28;20244;-50
2022/02/24 02:58:15;;;;;;;3.65;1.40;;;23.00;49.20;;;;;;5011577;28;20197;-50
2022/02/24 03:00:46;;;;;;;3.70;1.38;;;23.10;49.20;;;;;;5008716;28;20746;-53
2022/02/24 03:03:16;;;;;;;5.45;1.88;;;23.10;49.10;;;;;;5008552;28;20225;-48
2022/02/24 03:05:47;;;;;;;5.20;1.45;;;23.10;49.00;;;;;;5010778;28;20240;-52
2022/02/24 03:08:20;;;;;;;4.80;1.70;;;23.10;49.00;;;;;;5009999;28;20197;-50
2022/02/24 03:10:51;;;;;;;3.75;1.40;;;23.10;48.90;;;;;;5010230;28;20531;-60
2022/02/24 03:13:22;;;;;;;7.15;1.55;;;23.10;48.80;;;;;;5010595;28;20263;-58
2022/02/24 03:15:53;;;;;;;4.82;1.65;;;23.10;48.80;;;;;;5009796;28;20197;-54
2022/02/24 03:18:25;;;;;;;4.55;1.50;;;23.10;48.80;;;;;;5010244;28;20197;-51
2022/02/24 03:20:56;;;;;;;4.85;1.58;;;23.20;48.80;;;;;;5009682;28;20212;-48
2022/02/24 03:23:28;;;;;;;3.33;1.20;;;23.20;48.70;;;;;;5009700;28;20271;-49
2022/02/24 03:25:59;;;;;;;3.28;1.10;;;23.20;48.80;;;;;;5009711;28;20303;-51
2022/02/24 03:28:30;;;;;;;3.83;1.38;;;23.20;48.80;;;;;;5010540;28;20196;-52
2022/02/24 03:31:00;;;;;;;3.47;1.48;;;23.20;48.80;;;;;;5009621;28;20692;-49
2022/02/24 03:33:31;;;;;;;3.47;1.48;;;23.20;48.90;;;;;;5010235;28;20237;-48
2022/02/24 03:36:01;;;;;;;3.50;1.20;;;23.20;48.80;;;;;;5009900;28;20653;-49
2022/02/24 03:38:34;;;;;;;4.28;1.85;;;23.20;48.80;;;;;;5010037;28;20247;-48
2022/02/24 03:41:05;;;;;;;3.78;1.60;;;23.30;48.90;;;;;;5010008;28;20724;-53
2022/02/24 03:43:35;;;;;;;5.22;1.75;;;23.30;48.80;;;;;;5010082;28;20225;-52
2022/02/24 03:46:06;;;;;;;4.40;1.65;;;23.30;48.80;;;;;;5010099;28;20197;-54
2022/02/24 03:48:36;;;;;;;5.15;1.75;;;23.30;48.70;;;;;;5007213;28;20243;-49
2022/02/24 03:51:07;;;;;;;6.75;1.80;;;23.40;49.40;;;;;;5009457;28;20217;-53
2022/02/24 03:53:40;;;;;;;5.03;1.90;;;23.40;48.70;;;;;;5009613;28;20201;-53
2022/02/24 03:56:10;;;;;;;5.18;1.38;;;23.40;48.70;;;;;;5009395;28;20201;-51
2022/02/24 03:58:41;;;;;;;5.95;2.05;;;23.40;48.60;;;;;;5009814;28;20251;-56
2022/02/24 04:01:11;;;;;;;5.22;1.63;;;23.50;48.60;;;;;;5009019;28;20225;-54
2022/02/24 04:03:42;;;;;;;6.40;1.90;;;23.50;48.50;;;;;;5008845;28;20278;-55
2022/02/24 04:06:13;;;;;;;6.57;2.08;;;23.50;48.40;;;;;;5008055;28;20286;-47
2022/02/24 04:08:45;;;;;;;7.63;2.35;;;23.50;48.30;;;;;;5008823;28;20200;-50
2022/02/24 04:11:16;;;;;;;6.72;1.83;;;23.50;48.40;;;;;;5008672;28;20263;-48
2022/02/24 04:13:46;;;;;;;6.93;2.45;;;23.60;48.40;;;;;;5007114;28;20217;-50
2022/02/24 04:16:17;;;;;;;7.57;2.20;;;23.60;48.40;;;;;;5008772;28;20200;-52
2022/02/24 04:18:47;;;;;;;7.00;1.88;;;23.60;48.40;;;;;;5009480;28;20197;-50
2022/02/24 04:21:18;;;;;;;6.20;1.80;;;23.70;48.30;;;;;;5008900;28;20217;-53
2022/02/24 04:23:50;;;;;;;4.90;1.60;;;23.70;48.30;;;;;;5009909;28;20225;-55
2022/02/24 04:26:21;;;;;;;7.50;2.05;;;23.70;48.30;;;;;;5008332;28;20192;-55
2022/02/24 04:28:51;;;;;;;6.50;2.05;;;23.70;48.30;;;;;;5009409;28;20542;-54
2022/02/24 04:31:22;;;;;;;5.55;1.65;;;23.80;48.40;;;;;;5008588;28;20298;-50
2022/02/24 04:33:53;;;;;;;5.88;2.15;;;23.80;48.30;;;;;;5009526;28;20665;-47
2022/02/24 04:36:24;;;;;;;3.53;1.63;;;23.80;48.30;;;;;;5008709;28;20240;-50
2022/02/24 04:38:56;;;;;;;4.68;1.70;;;23.80;48.20;;;;;;5009989;28;20195;-46
2022/02/24 04:41:27;;;;;;;4.82;1.48;;;23.90;48.20;;;;;;5008526;28;20216;-47
2022/02/24 04:43:58;;;;;;;4.95;1.70;;;23.90;48.20;;;;;;5008360;28;20224;-52
2022/02/24 04:46:28;;;;;;;5.70;2.03;;;23.90;48.10;;;;;;5008920;28;20201;-51
2022/02/24 04:48:59;;;;;;;4.53;1.40;;;23.90;47.90;;;;;;5008811;28;20271;-57
2022/02/24 04:51:29;;;;;;;8.43;2.00;;;24.00;47.90;;;;;;5008553;28;20264;-58
2022/02/24 04:54:02;;;;;;;6.50;1.83;;;24.00;47.90;;;;;;5008753;28;20188;-55
2022/02/24 04:56:32;;;;;;;4.07;2.15;;;24.00;47.80;;;;;;5009856;28;20267;-51
2022/02/24 04:59:03;;;;;;;5.32;1.77;;;24.00;47.70;;;;;;5008382;28;20259;-52
2022/02/24 05:01:34;;;;;;;3.65;1.70;;;24.00;47.60;;;;;;5007913;28;20304;-53
2022/02/24 05:04:05;;;;;;;4.38;1.58;;;24.00;47.60;;;;;;5008326;28;20255;-58
2022/02/24 05:06:35;;;;;;;4.68;1.63;;;24.00;47.60;;;;;;5007351;28;20193;-51
2022/02/24 05:09:08;;;;;;;5.57;1.60;;;24.00;47.60;;;;;;5008691;28;20197;-56
2022/02/24 05:11:38;;;;;;;5.68;1.73;;;24.10;47.60;;;;;;5007111;28;20213;-57
2022/02/24 05:14:09;;;;;;;3.70;1.45;;;24.10;47.60;;;;;;5009197;28;20208;-59
2022/02/24 05:16:39;;;;;;;2.83;1.60;;;24.10;47.60;;;;;;5008203;28;20188;-58
2022/02/24 05:19:10;;;;;;;2.75;1.20;;;24.10;47.60;;;;;;5008153;28;20193;-51
2022/02/24 05:21:41;;;;;;;3.55;1.35;;;24.10;47.60;;;;;;5007818;28;20296;-58
2022/02/24 05:24:13;;;;;;;3.35;1.30;;;24.10;47.60;;;;;;5008351;28;20282;-58
2022/02/24 05:26:44;;;;;;;4.68;1.70;;;24.10;47.60;;;;;;5007991;28;20197;-53
2022/02/24 05:29:14;;;;;;;2.90;1.42;;;24.10;47.60;;;;;;5008764;28;20251;-50
2022/02/24 05:31:45;;;;;;;4.97;1.50;;;24.20;47.50;;;;;;5008816;28;20267;-58
2022/02/24 05:34:16;;;;;;;3.75;1.63;;;24.10;47.50;;;;;;5007695;28;20205;-59
2022/02/24 05:36:47;;;;;;;5.20;1.63;;;24.10;47.40;;;;;;5008317;28;20201;-59
2022/02/24 05:39:19;;;;;;;3.78;1.52;;;24.10;47.30;;;;;;5007996;28;20723;-50
2022/02/24 05:41:50;;;;;;;5.22;1.60;;;24.10;47.40;;;;;;5005401;28;20221;-51
2022/02/24 05:44:20;;;;;;;3.88;1.55;;;24.10;47.40;;;;;;5008083;28;20753;-48
2022/02/24 05:46:51;;;;;;;3.97;1.50;;;24.10;47.40;;;;;;5008966;28;20189;-51
2022/02/24 05:49:22;;;;;;;3.05;1.38;;;24.10;47.30;;;;;;5012640;28;20197;-45
2022/02/24 05:51:52;;;;;;;3.13;1.40;;;24.10;47.20;;;;;;5012369;28;20220;-50
2022/02/24 05:54:25;;;;;;;4.68;1.45;;;24.00;47.30;;;;;;5011476;28;20193;-48
2022/02/24 05:56:56;;;;;;;3.42;1.40;;;24.00;47.40;;;;;;5012564;28;20224;-52
2022/02/24 05:59:27;;;;;;;4.97;1.42;;;24.00;47.40;;;;;;5011287;28;20197;-50
2022/02/24 06:01:58;;;;;;;5.03;1.52;;;24.00;47.40;;;;;;5011326;28;20268;-50
2022/02/24 06:04:29;;;;;;;3.25;1.33;;;24.10;47.50;;;;;;5011807;28;20231;-55
2022/02/24 06:06:59;;;;;;;3.85;1.60;;;24.00;47.60;;;;;;5011220;28;20201;-55
2022/02/24 06:09:32;;;;;;;4.05;1.60;;;24.10;47.50;;;;;;5010239;28;20212;-55
2022/02/24 06:12:05;;;;;;;3.67;1.30;;;24.10;47.50;;;;;;5010485;28;20216;-55
2022/02/24 06:14:35;;;;;;;3.83;1.45;;;24.10;47.50;;;;;;5023329;23;20225;-54
2022/02/24 06:17:06;;;;;;;3.15;1.63;;;24.00;47.40;;;;;;5010856;28;20247;-59
2022/02/24 06:19:37;;;;;;;3.13;1.40;;;24.10;47.40;;;;;;5010855;28;20266;-58
2022/02/24 06:22:07;;;;;;;3.92;1.45;;;24.10;47.40;;;;;;5011795;28;20213;-57
2022/02/24 06:24:40;;;;;;;2.90;1.25;;;24.10;47.40;;;;;;5010939;28;20216;-57
2022/02/24 06:27:10;;;;;;;2.83;1.45;;;24.10;47.40;;;;;;5011926;28;20239;-57
2022/02/24 06:29:41;;;;;;;3.60;1.30;;;24.10;47.30;;;;;;5011448;28;20201;-55
2022/02/24 06:32:13;;;;;;;3.78;1.25;;;24.10;47.30;;;;;;5010296;28;20216;-58
2022/02/24 06:34:43;;;;;;;3.15;1.50;;;24.10;47.40;;;;;;4998353;28;20194;-54
2022/02/24 06:37:14;;;;;;;2.80;1.42;;;24.10;47.40;;;;;;4993200;28;20256;-58
2022/02/24 06:39:46;;;;;;;5.00;1.70;;;24.10;47.40;;;;;;4993424;28;20252;-57
2022/02/24 06:42:17;;;;;;;4.03;1.35;;;24.00;47.30;;;;;;4992023;28;20272;-56
2022/02/24 06:44:48;;;;;;;4.60;1.50;;;24.10;47.30;;;;;;4992265;28;20272;-57
2022/02/24 06:47:18;;;;;;;4.10;1.20;;;24.00;47.30;;;;;;4991446;28;20201;-58
2022/02/24 06:49:49;;;;;;;4.75;1.60;;;24.00;47.40;;;;;;4991656;28;20194;-57
2022/02/24 06:52:19;;;;;;;2.30;1.20;;;24.00;47.40;;;;;;4992940;28;20197;-55
2022/02/24 06:54:52;;;;;;;4.40;1.33;;;24.00;47.40;;;;;;4992969;28;20252;-56
2022/02/24 06:57:23;;;;;;;4.32;1.52;;;24.00;47.40;;;;;;4996335;28;20671;-56
2022/02/24 06:59:53;;;;;;;2.75;1.38;;;24.00;47.50;;;;;;5008634;28;20201;-60
2022/02/24 07:02:24;;;;;;;4.20;1.50;;;24.00;47.50;;;;;;5007587;28;20266;-57
2022/02/24 07:04:54;;;;;;;2.80;1.08;;;24.00;47.50;;;;;;5010455;28;20286;-54
2022/02/24 07:07:25;;;;;;;3.53;1.05;;;24.00;47.50;;;;;;5009207;28;20201;-56
2022/02/24 07:09:57;;;;;;;2.63;1.17;;;24.00;47.50;;;;;;5008639;28;20657;-56
2022/02/24 07:12:28;;;;;;;4.57;1.50;;;24.00;47.60;;;;;;5009564;28;20287;-56
2022/02/24 07:14:59;;;;;;;2.80;1.02;;;23.90;47.50;;;;;;5020398;23;20224;-47
2022/02/24 07:17:30;;;;;;;4.07;1.38;;;23.90;47.50;;;;;;5010626;28;20251;-47
2022/02/24 07:20:00;;;;;;;4.15;1.50;;;23.90;47.50;;;;;;5009621;28;20308;-52
2022/02/24 07:22:31;;;;;;;4.15;1.40;;;23.90;47.50;;;;;;5010434;28;20259;-49
2022/02/24 07:25:04;;;;;;;4.25;1.30;;;23.90;47.50;;;;;;5009162;28;20275;-48
2022/02/24 07:27:35;;;;;;;3.75;1.45;;;23.80;47.50;;;;;;5010253;28;20244;-45
2022/02/24 07:30:08;;;;;;;4.05;1.38;;;23.80;47.50;;;;;;5008824;28;20189;-46
2022/02/24 07:32:39;;;;;;;2.95;1.48;;;23.80;47.50;;;;;;5010128;28;20193;-47
2022/02/24 07:35:10;;;;;;;3.15;1.42;;;23.80;47.50;;;;;;5005979;28;20205;-48
2022/02/24 07:37:40;;;;;;;3.75;1.40;;;23.80;47.60;;;;;;5005303;28;20205;-45
2022/02/24 07:40:13;;;;;;;3.40;1.20;;;23.80;47.60;;;;;;5010770;28;20287;-43
2022/02/24 07:42:44;;;;;;;4.30;1.35;;;23.70;47.60;;;;;;5009947;28;20189;-44
2022/02/24 07:45:15;;;;;;;3.15;1.08;;;23.70;47.70;;;;;;5007107;28;20566;-51
2022/02/24 07:47:46;;;;;;;1.88;0.88;;;23.70;47.70;;;;;;5009050;28;20726;-43
2022/02/24 07:50:17;;;;;;;3.17;1.42;;;23.70;47.80;;;;;;5009411;28;20247;-45
2022/02/24 07:52:48;;;;;;;4.00;1.50;;;23.70;47.80;;;;;;5009768;28;20201;-51
2022/02/24 07:55:20;;;;;;;3.90;1.40;;;23.70;47.90;;;;;;5010162;28;20597;-43
2022/02/24 07:57:50;;;;;;;2.60;1.05;;;23.70;47.90;;;;;;5008354;28;20197;-46
2022/02/24 08:00:21;;;;;;;3.47;1.20;;;23.60;47.90;;;;;;5008468;28;20213;-53
2022/02/24 08:02:52;;;;;;;2.03;1.08;;;23.60;47.90;;;;;;5008857;28;20193;-46
2022/02/24 08:05:23;;;;;;;3.85;1.10;;;23.60;47.90;;;;;;5007357;28;20220;-50
2022/02/24 08:07:53;;;;;;;3.42;1.35;;;23.50;47.90;;;;;;5006829;28;20259;-46
2022/02/24 08:10:26;;;;;;;3.30;1.27;;;23.50;47.90;;;;;;5008986;28;20280;-47
2022/02/24 08:12:57;;;;;;;1.63;0.88;;;23.50;47.90;;;;;;5009908;28;20204;-47
2022/02/24 08:15:27;;;;;;;3.25;1.38;;;23.50;47.90;;;;;;5020747;23;20294;-53
2022/02/24 08:17:58;;;;;;;4.18;1.33;;;23.50;48.00;;;;;;5009559;28;20754;-58
2022/02/24 08:20:28;;;;;;;2.92;1.23;;;23.50;48.00;;;;;;5008714;28;20224;-54
2022/02/24 08:23:01;;;;;;;1.92;1.00;;;23.50;48.10;;;;;;5009006;28;20201;-57
2022/02/24 08:25:34;;;;;;;3.25;1.25;;;23.40;48.00;;;;;;5009200;28;20328;-58
2022/02/24 08:28:05;;;;;;;2.20;1.10;;;23.50;48.10;;;;;;5009513;28;20316;-58
2022/02/24 08:30:38;;;;;;;2.38;1.15;;;23.40;48.10;;;;;;5008924;28;20216;-57
2022/02/24 08:33:08;;;;;;;3.30;1.10;;;23.40;48.20;;;;;;5008510;28;20600;-57
2022/02/24 08:35:39;;;;;;;3.40;1.17;;;23.40;48.20;;;;;;5008931;28;20193;-58
2022/02/24 08:38:10;;;;;;;2.45;1.02;;;23.40;48.20;;;;;;5009008;28;20684;-58
2022/02/24 08:40:42;;;;;;;3.58;1.10;;;23.40;48.30;;;;;;5009260;28;20286;-51
2022/02/24 08:43:13;;;;;;;2.72;1.25;;;23.30;48.30;;;;;;5008821;28;20205;-58
2022/02/24 08:45:44;;;;;;;2.28;0.80;;;23.30;48.30;;;;;;5008708;28;20228;-57
2022/02/24 08:48:15;;;;;;;3.35;1.30;;;23.30;48.30;;;;;;5008561;28;20255;-57
2022/02/24 08:50:46;;;;;;;3.03;1.30;;;23.30;48.30;;;;;;5008522;28;20227;-57
2022/02/24 08:53:16;;;;;;;3.55;1.50;;;23.30;48.30;;;;;;5009009;28;20723;-58
2022/02/24 08:55:49;;;;;;;2.28;1.13;;;23.30;48.40;;;;;;5006340;28;20217;-57
2022/02/24 08:58:19;;;;;;;3.20;1.60;;;23.30;48.40;;;;;;5008689;28;20231;-58
2022/02/24 09:00:50;;;;;;;4.25;1.05;;;23.30;48.40;;;;;;5008497;28;20221;-58
2022/02/24 09:03:21;;;;;;;2.33;1.23;;;23.20;48.40;;;;;;5008665;28;20197;-57
2022/02/24 09:05:52;;;;;;;4.18;1.27;;;23.20;48.50;;;;;;5008562;28;20228;-58
2022/02/24 09:08:23;;;;;;;4.32;1.48;;;23.20;48.50;;;;;;5009049;28;20189;-55
2022/02/24 09:10:55;;;;;;;3.03;1.33;;;23.20;48.50;;;;;;5008694;28;20270;-60
2022/02/24 09:13:26;;;;;;;3.00;1.17;;;23.20;48.50;;;;;;5008900;28;20197;-56
2022/02/24 09:15:57;;;;;;;2.45;1.25;;;23.10;48.80;;;;;;5019826;23;20228;-47
2022/02/24 09:18:27;;;;;;;4.10;1.20;;;23.20;48.60;;;;;;5008323;28;20257;-55
2022/02/24 09:20:58;;;;;;;3.90;1.27;;;23.10;48.50;;;;;;5009626;28;20228;-55
2022/02/24 09:23:29;;;;;;;3.08;1.42;;;23.10;48.60;;;;;;5008717;28;20255;-55
2022/02/24 09:26:01;;;;;;;2.97;1.10;;;23.10;48.60;;;;;;5007897;28;20220;-58
2022/02/24 09:28:32;;;;;;;1.45;1.10;;;23.00;48.60;;;;;;5001406;28;20201;-53
2022/02/24 09:31:02;;;;;;;2.90;1.20;;;23.10;48.70;;;;;;5007971;28;20217;-47
2022/02/24 09:33:33;;;;;;;3.40;1.20;;;23.00;48.60;;;;;;5007969;28;20196;-53
2022/02/24 09:36:04;;;;;;;2.38;1.20;;;23.00;48.60;;;;;;5008092;28;20220;-48
2022/02/24 09:38:35;;;;;;;3.03;1.10;;;23.00;48.60;;;;;;5008362;28;20205;-46
2022/02/24 09:41:08;;;;;;;1.85;1.08;;;23.00;48.70;;;;;;5006600;28;20228;-55
2022/02/24 09:43:39;;;;;;;2.17;0.90;;;23.00;48.70;;;;;;5008517;28;20193;-55
2022/02/24 09:46:12;;;;;;;1.75;0.90;;;22.90;48.70;;;;;;5007629;28;20217;-51
2022/02/24 09:48:44;;;;;;;2.10;1.00;;;22.90;48.60;;;;;;5007727;28;20201;-59
2022/02/24 09:51:17;;;;;;;1.73;1.00;;;22.90;48.70;;;;;;5008197;28;20216;-49
2022/02/24 09:53:48;;;;;;;2.30;1.08;;;22.90;48.70;;;;;;5006451;28;20251;-60
2022/02/24 09:56:21;;;;;;;2.63;1.00;;;22.80;48.70;;;;;;5007411;28;20193;-46
2022/02/24 09:58:53;;;;;;;2.85;1.20;;;22.80;48.70;;;;;;5008276;28;20263;-47
2022/02/24 10:01:23;;;;;;;2.95;1.10;;;22.80;48.70;;;;;;5008189;28;20639;-51
2022/02/24 10:03:59;;;;;;;1.67;0.80;;;22.80;48.80;;;;;;5008418;28;20243;-48
2022/02/24 10:07:00;;;;;;;3.55;1.25;;;22.80;48.80;;;;;;5008138;28;20216;-54
2022/02/24 10:09:33;;;;;;;2.28;1.10;;;22.80;48.80;;;;;;5008398;28;20243;-49
2022/02/24 10:12:10;;;;;;;3.00;1.17;;;22.70;48.70;;;;;;5005958;28;20217;-50
2022/02/24 10:14:41;;;;;;;3.60;1.63;;;22.70;48.80;;;;;;5008481;28;20722;-46
2022/02/24 10:17:12;;;;;;;2.67;1.30;;;22.70;48.80;;;;;;5007443;28;20208;-43
2022/02/24 10:19:43;;;;;;;1.98;1.20;;;22.60;48.80;;;;;;5007603;28;20197;-42
2022/02/24 10:22:19;;;;;;;1.73;1.13;;;22.60;48.80;;;;;;5007863;28;20217;-43
2022/02/24 10:24:57;;;;;;;1.63;0.85;;;22.60;48.80;;;;;;5008604;28;20675;-55
2022/02/24 10:27:31;;;;;;;1.52;0.80;;;22.60;48.90;;;;;;5007867;28;20278;-53
2022/02/24 10:30:19;;;;;;;2.10;1.00;;;22.60;48.90;;;;;;5007741;28;20255;-44
2022/02/24 10:32:52;;;;;;;3.63;0.93;;;22.50;48.80;;;;;;4990025;28;20202;-45
2022/02/24 10:35:27;;;;;;;1.73;0.80;;;22.50;48.80;;;;;;4992440;28;20197;-60
2022/02/24 10:38:06;;;;;;;1.40;0.88;;;22.50;48.90;;;;;;4991978;28;20205;-52
2022/02/24 10:40:38;;;;;;;1.98;1.10;;;22.50;48.90;;;;;;4991841;28;20252;-49
2022/02/24 10:43:20;;;;;;;3.05;1.42;;;22.50;49.00;;;;;;4991714;28;20201;-46
2022/02/24 10:46:02;;;;;;;1.90;1.10;;;22.40;49.00;;;;;;4991351;28;20267;-56
2022/02/24 10:48:34;;;;;;;2.28;1.13;;;22.40;49.00;;;;;;4992491;28;20585;-56
2022/02/24 10:51:06;;;;;;;1.58;1.05;;;22.40;49.00;;;;;;4993013;28;20214;-58
2022/02/24 10:53:39;;;;;;;1.85;1.00;;;22.40;49.10;;;;;;4993471;28;20658;-57
2022/02/24 10:56:11;;;;;;;1.42;0.85;;;22.40;49.10;;;;;;4993204;28;20245;-59
2022/02/24 10:58:44;;;;;;;2.85;1.10;;;22.30;49.00;;;;;;4993117;28;20197;-56
2022/02/24 11:01:17;;;;;;;2.28;1.10;;;22.30;49.10;;;;;;4992453;28;20279;-54
2022/02/24 11:03:49;;;;;;;3.30;0.90;;;22.30;49.50;;;;;;4999191;28;20205;-46
2022/02/24 11:06:22;;;;;;;1.90;0.90;;;22.20;49.10;;;;;;5011088;28;20761;-60
2022/02/24 11:08:53;;;;;;;1.60;1.05;;;22.30;49.10;;;;;;5009358;28;20193;-56
2022/02/24 11:11:25;;;;;;;1.17;1.05;;;22.20;49.10;;;;;;5011162;28;20275;-59
2022/02/24 11:13:59;;;;;;;2.35;1.05;;;22.20;49.10;;;;;;5010412;28;20653;-49
2022/02/24 11:16:30;;;;;;;2.47;1.00;;;22.20;49.20;;;;;;5010071;28;20208;-59
2022/02/24 11:19:01;;;;;;;1.77;0.90;;;22.20;49.20;;;;;;5010009;28;20189;-48
2022/02/24 11:21:33;;;;;;;1.90;0.85;;;22.20;49.20;;;;;;5009840;28;20213;-42
2022/02/24 11:24:04;;;;;;;1.35;0.80;;;22.10;49.20;;;;;;5010995;28;20197;-43
2022/02/24 11:26:51;;;;;;;2.63;0.90;;;22.10;49.30;;;;;;5010670;28;20275;-42
2022/02/24 11:29:33;;;;;;;1.65;0.80;;;22.10;49.30;;;;;;5010659;28;20704;-47
2022/02/24 11:32:09;;;;;;;1.73;1.00;;;22.10;49.30;;;;;;5000917;28;20603;-43
2022/02/24 11:35:00;;;;;;;1.48;0.80;;;22.10;49.30;;;;;;4993432;28;20197;-50
2022/02/24 11:37:33;;;;;;;2.03;0.93;;;22.00;49.30;;;;;;4992850;28;20194;-50
2022/02/24 11:40:06;;;;;;;2.22;0.95;;;22.00;49.30;;;;;;4992710;28;20616;-48
2022/02/24 11:42:39;;;;;;;1.70;1.00;;;22.00;49.40;;;;;;4992568;28;20193;-49
2022/02/24 11:45:33;;;;;;;1.85;0.80;;;22.00;49.40;;;;;;4991924;28;20201;-45
2022/02/24 11:48:05;;;;;;;2.08;0.90;;;22.00;49.40;;;;;;4991696;28;20291;-46
2022/02/24 11:50:38;;;;;;;2.85;1.02;;;21.90;49.40;;;;;;4991581;28;20209;-51
2022/02/24 11:53:09;;;;;;;2.30;0.95;;;21.90;49.40;;;;;;4992193;28;20202;-54
2022/02/24 12:02:53;;;;;;;2.72;0.90;;;21.90;49.40;;;;;;4985567;28;20568;-51
2022/02/24 12:05:30;;;;;;;2.05;1.08;;;21.90;49.40;;;;;;4991736;28;20238;-53
2022/02/24 12:08:04;;;;;;;1.58;0.90;;;21.80;50.00;;;;;;4991682;28;20586;-52
2022/02/24 12:10:45;;;;;;;1.20;0.80;;;21.80;49.50;;;;;;4991507;28;20273;-54
2022/02/24 12:16:22;;;;;;;3.08;0.98;;;21.80;49.60;;;;;;4989138;28;20225;-51
2022/02/24 12:18:56;;;;;;;1.60;0.80;;;21.80;49.50;;;;;;4991220;28;20619;-55
2022/02/24 12:21:34;;;;;;;1.98;1.00;;;21.80;49.60;;;;;;4991296;28;20647;-58
2022/02/24 12:24:13;;;;;;;2.40;0.93;;;21.80;49.60;;;;;;4991603;28;20201;-57
2022/02/24 12:26:45;;;;;;;1.35;0.80;;;21.70;49.60;;;;;;4991545;28;20229;-58
2022/02/24 12:29:26;;;;;;;1.17;0.75;;;21.70;49.60;;;;;;4991355;28;20205;-58
2022/02/24 12:31:59;;;;;;;1.90;0.80;;;21.70;49.70;;;;;;4979027;28;20213;-56
2022/02/24 12:34:32;;;;;;;1.58;0.90;;;21.70;49.70;;;;;;4991297;28;20259;-56
2022/02/24 12:37:07;;;;;;;2.00;0.98;;;21.70;49.70;;;;;;4991565;28;20198;-59
2022/02/24 12:39:39;;;;;;;1.52;0.82;;;21.70;49.70;;;;;;4991371;28;20903;-53
2022/02/24 12:42:10;;;;;;;1.80;1.00;;;21.70;49.70;;;;;;4991448;28;20621;-54
2022/02/24 12:44:43;;;;;;;2.65;1.02;;;21.60;49.60;;;;;;4991143;28;20646;-56
2022/02/24 12:47:13;;;;;;;1.85;1.10;;;21.60;49.60;;;;;;4990509;28;20760;-57
2022/02/24 12:49:52;;;;;;;3.95;1.08;;;21.60;49.70;;;;;;4990795;28;20193;-58
2022/02/24 12:52:23;;;;;;;1.02;0.77;;;21.60;49.70;;;;;;4991295;28;20648;-57
2022/02/24 12:54:54;;;;;;;1.05;0.75;;;21.60;49.70;;;;;;4986282;28;20201;-52
2022/02/24 12:57:25;;;;;;;1.40;0.90;;;21.60;49.70;;;;;;4952102;28;20250;-55
2022/02/24 12:59:57;;;;;;;1.98;1.00;;;21.60;49.70;;;;;;4952234;28;20284;-56
2022/02/24 13:02:28;;;;;;;1.90;1.13;;;21.60;49.70;;;;;;4965884;28;20202;-53
2022/02/24 13:05:03;;;;;;;1.98;1.00;;;21.60;49.80;;;;;;4990657;28;20198;-51
2022/02/24 13:10:32;;;;;;;1.10;0.70;;;21.50;49.70;;;;;;4991071;28;20574;-57
2022/02/24 13:13:03;;;;;;;1.00;0.73;;;21.50;49.70;;;;;;4990857;28;20782;-55
2022/02/24 13:15:34;;;;;;;0.88;0.60;;;21.50;49.80;;;;;;4990862;23;20237;-56
2022/02/24 13:18:05;;;;;;;1.65;1.05;;;21.50;49.70;;;;;;4981925;28;20194;-49
2022/02/24 13:20:38;;;;;;;0.93;0.80;;;21.50;49.80;;;;;;4990683;28;20271;-57
2022/02/24 13:23:10;;;;;;;3.15;0.88;;;21.50;49.80;;;;;;4990445;28;20760;-53
2022/02/24 13:25:41;;;;;;;1.60;0.68;;;21.40;49.80;;;;;;4990346;28;20244;-57